Eko 2 — SY9957 — position and weather

sailwx.info

Track history (hours):
 
Tides and Currents Weather Stations Pressure Air Temp Water Temp Dewpoint Dewpoint Depression Visibility Wind Speed Wind Dir Waves Ship Positions

Eko 2

Last reported at 2014-Nov-28 14:22 UTC. Time now 2014-Nov-28 17:02 UTC.
Position N 36°58' E 024°36'.

Length 89 m; draft 4.3 m.

Type: Ship (hazmat cat A). MMSI: 240827000.

Date/timePositionNaut miles runAvg speedWind from/ knotsBaromVisibWave heightAir tempDewpointWater temp
2014-Nov-28 14:22N 36°58' E 024°36'911.0
2014-Nov-28 13:33N 36°52' E 024°29'9 9.0
2014-Nov-28 12:33N 36°43' E 024°26'3 0.4
2014-Nov-28 04:33N 36°45' E 024°23'8 8.1
2014-Nov-28 03:33N 36°53' E 024°25'10 9.3
2014-Nov-28 02:32N 37°01' E 024°31'9 9.2
2014-Nov-28 01:33N 37°08' E 024°38'9 9.3
2014-Nov-28 00:33N 37°15' E 024°46'10 9.9
2014-Nov-27 23:33N 37°19' E 024°57'10 9.6
2014-Nov-27 22:33N 37°26' E 025°05'1110.1
2014-Nov-27 21:31N 37°28' E 025°19'1 0.7
2014-Nov-27 20:31N 37°28' E 025°20'0 0.0
2014-Nov-27 19:31N 37°28' E 025°20'0 0.0
2014-Nov-27 18:31N 37°28' E 025°20'0 0.0
2014-Nov-27 17:31N 37°28' E 025°20'0 0.0
2014-Nov-27 16:31N 37°28' E 025°20'0 0.0
2014-Nov-27 15:31N 37°28' E 025°20'0 0.0
2014-Nov-27 14:31N 37°28' E 025°20'0 0.0
2014-Nov-27 13:31N 37°28' E 025°20'0 0.0
2014-Nov-27 12:28N 37°28' E 025°20'0 0.0
2014-Nov-27 11:31N 37°28' E 025°20'0 0.0
2014-Nov-27 10:31N 37°28' E 025°20'0 0.0
2014-Nov-27 09:31N 37°28' E 025°20'0 0.0
2014-Nov-27 08:31N 37°28' E 025°20'0 0.0
2014-Nov-27 07:31N 37°28' E 025°20'0 0.0
2014-Nov-27 06:31N 37°28' E 025°20'0 0.1
2014-Nov-27 05:33N 37°28' E 025°19'9 8.7
2014-Nov-27 04:33N 37°20' E 025°15'1110.8
2014-Nov-27 03:34N 37°10' E 025°09'5 4.9
2014-Nov-27 02:32N 37°05' E 025°09'0 0.0
2014-Nov-27 01:33N 37°05' E 025°09'0 0.0
2014-Nov-27 00:30N 37°05' E 025°09'0 0.0
2014-Nov-26 23:24N 37°05' E 025°09'0 0.0
2014-Nov-26 22:30N 37°05' E 025°09'0 0.0
2014-Nov-26 21:24N 37°05' E 025°09'0 0.0
2014-Nov-26 19:24N 37°05' E 025°09'0 0.0
2014-Nov-26 18:30N 37°05' E 025°09'0 0.0
2014-Nov-26 17:06N 37°05' E 025°09'0 0.0
2014-Nov-26 15:09N 37°05' E 025°09'0 0.2
2014-Nov-26 14:31N 37°05' E 025°09'0 0.0
2014-Nov-26 13:32N 37°05' E 025°09'0 0.0
2014-Nov-26 12:31N 37°05' E 025°09'0 0.4
2014-Nov-26 11:30N 37°05' E 025°09'7 7.0
2014-Nov-26 10:33N 37°03' E 025°01'9 8.6
2014-Nov-26 09:33N 36°55' E 024°57'1010.5
2014-Nov-26 08:33N 36°48' E 025°07'1010.1
2014-Nov-26 07:33N 36°40' E 025°15'1010.3
2014-Nov-26 06:33N 36°31' E 025°20'9 8.7
2014-Nov-26 05:33N 36°23' E 025°26'0 0.1
2014-Nov-26 04:31N 36°23' E 025°26'0 0.0
2014-Nov-26 03:31N 36°23' E 025°26'0 0.0
2014-Nov-26 02:31N 36°23' E 025°26'0 0.0
2014-Nov-26 01:31N 36°23' E 025°26'0 0.0
2014-Nov-26 00:31N 36°23' E 025°26'0 0.0
2014-Nov-25 23:31N 36°23' E 025°26'0 0.0
2014-Nov-25 22:32N 36°23' E 025°26'0 0.0
2014-Nov-25 21:31N 36°23' E 025°26'0 0.0
2014-Nov-25 20:31N 36°23' E 025°26'0 0.0
2014-Nov-25 19:31N 36°23' E 025°26'0 0.0
2014-Nov-25 18:31N 36°23' E 025°26'0 0.0
2014-Nov-25 17:31N 36°23' E 025°26'0 0.0
2014-Nov-25 16:31N 36°23' E 025°26'0 0.0
2014-Nov-25 15:31N 36°23' E 025°26'0 0.0
2014-Nov-25 14:31N 36°23' E 025°26'0 0.0
2014-Nov-25 13:31N 36°23' E 025°26'0 0.0
2014-Nov-25 12:31N 36°23' E 025°26'0 0.0
2014-Nov-25 11:31N 36°23' E 025°26'0 0.0
2014-Nov-25 10:31N 36°23' E 025°26'0 0.0
2014-Nov-25 09:31N 36°23' E 025°26'0 0.0
2014-Nov-25 08:31N 36°23' E 025°26'0 0.0
2014-Nov-25 07:31N 36°23' E 025°26'0 0.0
2014-Nov-25 06:31N 36°23' E 025°26'0 0.0
2014-Nov-25 05:31N 36°23' E 025°26'0 0.0
2014-Nov-25 04:32N 36°23' E 025°26'0 0.0
2014-Nov-25 03:32N 36°23' E 025°26'0 0.0
2014-Nov-25 02:31N 36°23' E 025°26'0 0.0
2014-Nov-25 01:31N 36°23' E 025°26'0 0.0
2014-Nov-25 00:31N 36°23' E 025°26'0 0.0
2014-Nov-24 23:31N 36°23' E 025°26'0 0.0
2014-Nov-24 22:31N 36°23' E 025°26'0 0.0
2014-Nov-24 21:31N 36°23' E 025°26'0 0.0
2014-Nov-24 20:31N 36°23' E 025°26'0 0.0
2014-Nov-24 19:31N 36°23' E 025°26'0 0.0
2014-Nov-24 18:31N 36°23' E 025°26'0 0.0
2014-Nov-24 17:31N 36°23' E 025°26'0 0.0
2014-Nov-24 16:31N 36°23' E 025°26'0 0.0
2014-Nov-24 15:32N 36°23' E 025°26'0 0.0
2014-Nov-24 14:31N 36°23' E 025°26'0 0.0
2014-Nov-24 13:32N 36°23' E 025°26'0 0.0
2014-Nov-24 12:31N 36°23' E 025°26'0 0.0
2014-Nov-24 11:31N 36°23' E 025°26'0 0.0
2014-Nov-24 10:31N 36°23' E 025°26'0 0.0
2014-Nov-24 09:31N 36°23' E 025°26'0 0.0
2014-Nov-24 08:31N 36°23' E 025°26'0 0.0
2014-Nov-24 07:31N 36°23' E 025°26'0 0.0
2014-Nov-24 06:31N 36°23' E 025°26'0 0.0
2014-Nov-24 05:31N 36°23' E 025°26'0 0.0
2014-Nov-24 04:31N 36°23' E 025°26'0 0.0
2014-Nov-24 03:31N 36°23' E 025°26'0 0.0
2014-Nov-24 02:31N 36°23' E 025°26'0 0.0
2014-Nov-24 01:31N 36°23' E 025°26'0 0.0
2014-Nov-24 00:31N 36°23' E 025°26'0 0.0
2014-Nov-23 23:31N 36°23' E 025°26'0 0.0
2014-Nov-23 22:31N 36°23' E 025°26'0 0.0
2014-Nov-23 21:31N 36°23' E 025°26'0 0.0
2014-Nov-23 20:31N 36°23' E 025°26'0 0.0
2014-Nov-23 19:31N 36°23' E 025°26'0 0.0
2014-Nov-23 18:31N 36°23' E 025°26'0 0.0
2014-Nov-23 17:31N 36°23' E 025°26'0 0.0
2014-Nov-23 16:31N 36°23' E 025°26'0 0.0
2014-Nov-23 15:31N 36°23' E 025°26'0 0.0
2014-Nov-23 14:31N 36°23' E 025°26'0 0.0
2014-Nov-23 13:31N 36°23' E 025°26'0 0.0
2014-Nov-23 12:28N 36°23' E 025°26'0 0.0
2014-Nov-23 11:32N 36°23' E 025°26'0 0.0
2014-Nov-23 10:31N 36°23' E 025°26'0 0.0
2014-Nov-23 09:32N 36°23' E 025°26'0 0.0
2014-Nov-23 08:33N 36°23' E 025°26'2 1.6
2014-Nov-23 07:34N 36°23' E 025°24'3 2.8
2014-Nov-23 06:31N 36°20' E 025°25'0 0.0
2014-Nov-23 05:31N 36°20' E 025°25'0 0.0
2014-Nov-23 04:33N 36°20' E 025°25'0 0.0
2014-Nov-23 03:33N 36°20' E 025°25'0 0.0
2014-Nov-23 02:33N 36°20' E 025°25'0 0.0
2014-Nov-23 01:33N 36°20' E 025°25'0 0.0
2014-Nov-23 00:31N 36°20' E 025°25'0 0.0
2014-Nov-22 23:33N 36°20' E 025°25'0 0.0
2014-Nov-22 22:30N 36°20' E 025°25'0 0.0
2014-Nov-22 21:28N 36°20' E 025°25'0 0.0
2014-Nov-22 20:33N 36°20' E 025°25'0 0.0
2014-Nov-22 19:30N 36°20' E 025°25'0 0.0
2014-Nov-22 18:33N 36°20' E 025°25'0 0.0
2014-Nov-22 17:33N 36°20' E 025°25'0 0.0
2014-Nov-22 16:30N 36°20' E 025°25'0 0.0
2014-Nov-22 15:33N 36°20' E 025°25'0 0.0
2014-Nov-22 14:33N 36°20' E 025°25'2 2.2
2014-Nov-22 13:33N 36°19' E 025°27'1111.4
2014-Nov-22 12:33N 36°27' E 025°37'1111.2
2014-Nov-22 11:33N 36°33' E 025°49'1111.1
2014-Nov-22 10:33N 36°38' E 026°02'1111.1
2014-Nov-22 09:34N 36°45' E 026°12'  
2014-Nov-19 23:08N 37°02' E 025°52'610.2
2014-Nov-19 22:33N 36°58' E 025°48'9 8.6
2014-Nov-19 21:34N 36°50' E 025°52'0 0.1
2014-Nov-19 12:33N 36°50' E 025°51'1010.4
2014-Nov-19 11:33N 36°59' E 025°46'1111.1
2014-Nov-19 10:33N 37°09' E 025°39'1010.4
2014-Nov-19 09:33N 37°13' E 025°27'1110.9
2014-Nov-19 08:31N 37°10' E 025°13'6 0.4
2014-Nov-18 17:26N 37°05' E 025°09'6 6.3
2014-Nov-18 16:33N 37°10' E 025°06'1111.0
2014-Nov-18 15:33N 37°21' E 025°02'7 6.5
2014-Nov-18 14:30N 37°26' E 024°56'  
Track history (hours):
 
Tides and Currents Weather Stations Pressure Air Temp Water Temp Dewpoint Dewpoint Depression Visibility Wind Speed Wind Dir Waves Ship Positions

Eko 2

Last reported at 2014-Nov-28 14:22 UTC. Time now 2014-Nov-28 17:02 UTC.
Position N 36°58' E 024°36'.

Length 89 m; draft 4.3 m.

Type: Ship (hazmat cat A). MMSI: 240827000.

Date/timePositionNaut miles runAvg speedWind from/ knotsBaromVisibWave heightAir tempDewpointWater temp
2014-Nov-28 14:22N 36°58' E 024°36'911.0
2014-Nov-28 13:33N 36°52' E 024°29'9 9.0
2014-Nov-28 12:33N 36°43' E 024°26'3 0.4
2014-Nov-28 04:33N 36°45' E 024°23'8 8.1
2014-Nov-28 03:33N 36°53' E 024°25'10 9.3
2014-Nov-28 02:32N 37°01' E 024°31'9 9.2
2014-Nov-28 01:33N 37°08' E 024°38'9 9.3
2014-Nov-28 00:33N 37°15' E 024°46'10 9.9
2014-Nov-27 23:33N 37°19' E 024°57'10 9.6
2014-Nov-27 22:33N 37°26' E 025°05'1110.1
2014-Nov-27 21:31N 37°28' E 025°19'1 0.7
2014-Nov-27 20:31N 37°28' E 025°20'0 0.0
2014-Nov-27 19:31N 37°28' E 025°20'0 0.0
2014-Nov-27 18:31N 37°28' E 025°20'0 0.0
2014-Nov-27 17:31N 37°28' E 025°20'0 0.0
2014-Nov-27 16:31N 37°28' E 025°20'0 0.0
2014-Nov-27 15:31N 37°28' E 025°20'0 0.0
2014-Nov-27 14:31N 37°28' E 025°20'0 0.0
2014-Nov-27 13:31N 37°28' E 025°20'0 0.0
2014-Nov-27 12:28N 37°28' E 025°20'0 0.0
2014-Nov-27 11:31N 37°28' E 025°20'0 0.0
2014-Nov-27 10:31N 37°28' E 025°20'0 0.0
2014-Nov-27 09:31N 37°28' E 025°20'0 0.0
2014-Nov-27 08:31N 37°28' E 025°20'0 0.0
2014-Nov-27 07:31N 37°28' E 025°20'0 0.0
2014-Nov-27 06:31N 37°28' E 025°20'0 0.1
2014-Nov-27 05:33N 37°28' E 025°19'9 8.7
2014-Nov-27 04:33N 37°20' E 025°15'1110.8
2014-Nov-27 03:34N 37°10' E 025°09'5 4.9
2014-Nov-27 02:32N 37°05' E 025°09'0 0.0
2014-Nov-27 01:33N 37°05' E 025°09'0 0.0
2014-Nov-27 00:30N 37°05' E 025°09'0 0.0
2014-Nov-26 23:24N 37°05' E 025°09'0 0.0
2014-Nov-26 22:30N 37°05' E 025°09'0 0.0
2014-Nov-26 21:24N 37°05' E 025°09'0 0.0
2014-Nov-26 19:24N 37°05' E 025°09'0 0.0
2014-Nov-26 18:30N 37°05' E 025°09'0 0.0
2014-Nov-26 17:06N 37°05' E 025°09'0 0.0
2014-Nov-26 15:09N 37°05' E 025°09'0 0.2
2014-Nov-26 14:31N 37°05' E 025°09'0 0.0
2014-Nov-26 13:32N 37°05' E 025°09'0 0.0
2014-Nov-26 12:31N 37°05' E 025°09'0 0.4
2014-Nov-26 11:30N 37°05' E 025°09'7 7.0
2014-Nov-26 10:33N 37°03' E 025°01'9 8.6
2014-Nov-26 09:33N 36°55' E 024°57'1010.5
2014-Nov-26 08:33N 36°48' E 025°07'1010.1
2014-Nov-26 07:33N 36°40' E 025°15'1010.3
2014-Nov-26 06:33N 36°31' E 025°20'9 8.7
2014-Nov-26 05:33N 36°23' E 025°26'0 0.1
2014-Nov-26 04:31N 36°23' E 025°26'0 0.0
2014-Nov-26 03:31N 36°23' E 025°26'0 0.0
2014-Nov-26 02:31N 36°23' E 025°26'0 0.0
2014-Nov-26 01:31N 36°23' E 025°26'0 0.0
2014-Nov-26 00:31N 36°23' E 025°26'0 0.0
2014-Nov-25 23:31N 36°23' E 025°26'0 0.0
2014-Nov-25 22:32N 36°23' E 025°26'0 0.0
2014-Nov-25 21:31N 36°23' E 025°26'0 0.0
2014-Nov-25 20:31N 36°23' E 025°26'0 0.0
2014-Nov-25 19:31N 36°23' E 025°26'0 0.0
2014-Nov-25 18:31N 36°23' E 025°26'0 0.0
2014-Nov-25 17:31N 36°23' E 025°26'0 0.0
2014-Nov-25 16:31N 36°23' E 025°26'0 0.0
2014-Nov-25 15:31N 36°23' E 025°26'0 0.0
2014-Nov-25 14:31N 36°23' E 025°26'0 0.0
2014-Nov-25 13:31N 36°23' E 025°26'0 0.0
2014-Nov-25 12:31N 36°23' E 025°26'0 0.0
2014-Nov-25 11:31N 36°23' E 025°26'0 0.0
2014-Nov-25 10:31N 36°23' E 025°26'0 0.0
2014-Nov-25 09:31N 36°23' E 025°26'0 0.0
2014-Nov-25 08:31N 36°23' E 025°26'0 0.0
2014-Nov-25 07:31N 36°23' E 025°26'0 0.0
2014-Nov-25 06:31N 36°23' E 025°26'0 0.0
2014-Nov-25 05:31N 36°23' E 025°26'0 0.0
2014-Nov-25 04:32N 36°23' E 025°26'0 0.0
2014-Nov-25 03:32N 36°23' E 025°26'0 0.0
2014-Nov-25 02:31N 36°23' E 025°26'0 0.0
2014-Nov-25 01:31N 36°23' E 025°26'0 0.0
2014-Nov-25 00:31N 36°23' E 025°26'0 0.0
2014-Nov-24 23:31N 36°23' E 025°26'0 0.0
2014-Nov-24 22:31N 36°23' E 025°26'0 0.0
2014-Nov-24 21:31N 36°23' E 025°26'0 0.0
2014-Nov-24 20:31N 36°23' E 025°26'0 0.0
2014-Nov-24 19:31N 36°23' E 025°26'0 0.0
2014-Nov-24 18:31N 36°23' E 025°26'0 0.0
2014-Nov-24 17:31N 36°23' E 025°26'0 0.0
2014-Nov-24 16:31N 36°23' E 025°26'0 0.0
2014-Nov-24 15:32N 36°23' E 025°26'0 0.0
2014-Nov-24 14:31N 36°23' E 025°26'0 0.0
2014-Nov-24 13:32N 36°23' E 025°26'0 0.0
2014-Nov-24 12:31N 36°23' E 025°26'0 0.0
2014-Nov-24 11:31N 36°23' E 025°26'0 0.0
2014-Nov-24 10:31N 36°23' E 025°26'0 0.0
2014-Nov-24 09:31N 36°23' E 025°26'0 0.0
2014-Nov-24 08:31N 36°23' E 025°26'0 0.0
2014-Nov-24 07:31N 36°23' E 025°26'0 0.0
2014-Nov-24 06:31N 36°23' E 025°26'0 0.0
2014-Nov-24 05:31N 36°23' E 025°26'0 0.0
2014-Nov-24 04:31N 36°23' E 025°26'0 0.0
2014-Nov-24 03:31N 36°23' E 025°26'0 0.0
2014-Nov-24 02:31N 36°23' E 025°26'0 0.0
2014-Nov-24 01:31N 36°23' E 025°26'0 0.0
2014-Nov-24 00:31N 36°23' E 025°26'0 0.0
2014-Nov-23 23:31N 36°23' E 025°26'0 0.0
2014-Nov-23 22:31N 36°23' E 025°26'0 0.0
2014-Nov-23 21:31N 36°23' E 025°26'0 0.0
2014-Nov-23 20:31N 36°23' E 025°26'0 0.0
2014-Nov-23 19:31N 36°23' E 025°26'0 0.0
2014-Nov-23 18:31N 36°23' E 025°26'0 0.0
2014-Nov-23 17:31N 36°23' E 025°26'0 0.0
2014-Nov-23 16:31N 36°23' E 025°26'0 0.0
2014-Nov-23 15:31N 36°23' E 025°26'0 0.0
2014-Nov-23 14:31N 36°23' E 025°26'0 0.0
2014-Nov-23 13:31N 36°23' E 025°26'0 0.0
2014-Nov-23 12:28N 36°23' E 025°26'0 0.0
2014-Nov-23 11:32N 36°23' E 025°26'0 0.0
2014-Nov-23 10:31N 36°23' E 025°26'0 0.0
2014-Nov-23 09:32N 36°23' E 025°26'0 0.0
2014-Nov-23 08:33N 36°23' E 025°26'2 1.6
2014-Nov-23 07:34N 36°23' E 025°24'3 2.8
2014-Nov-23 06:31N 36°20' E 025°25'0 0.0
2014-Nov-23 05:31N 36°20' E 025°25'0 0.0
2014-Nov-23 04:33N 36°20' E 025°25'0 0.0
2014-Nov-23 03:33N 36°20' E 025°25'0 0.0
2014-Nov-23 02:33N 36°20' E 025°25'0 0.0
2014-Nov-23 01:33N 36°20' E 025°25'0 0.0
2014-Nov-23 00:31N 36°20' E 025°25'0 0.0
2014-Nov-22 23:33N 36°20' E 025°25'0 0.0
2014-Nov-22 22:30N 36°20' E 025°25'0 0.0
2014-Nov-22 21:28N 36°20' E 025°25'0 0.0
2014-Nov-22 20:33N 36°20' E 025°25'0 0.0
2014-Nov-22 19:30N 36°20' E 025°25'0 0.0
2014-Nov-22 18:33N 36°20' E 025°25'0 0.0
2014-Nov-22 17:33N 36°20' E 025°25'0 0.0
2014-Nov-22 16:30N 36°20' E 025°25'0 0.0
2014-Nov-22 15:33N 36°20' E 025°25'0 0.0
2014-Nov-22 14:33N 36°20' E 025°25'2 2.2
2014-Nov-22 13:33N 36°19' E 025°27'1111.4
2014-Nov-22 12:33N 36°27' E 025°37'1111.2
2014-Nov-22 11:33N 36°33' E 025°49'1111.1
2014-Nov-22 10:33N 36°38' E 026°02'1111.1
2014-Nov-22 09:34N 36°45' E 026°12'  
2014-Nov-19 23:08N 37°02' E 025°52'610.2
2014-Nov-19 22:33N 36°58' E 025°48'9 8.6
2014-Nov-19 21:34N 36°50' E 025°52'0 0.1
2014-Nov-19 12:33N 36°50' E 025°51'1010.4
2014-Nov-19 11:33N 36°59' E 025°46'1111.1
2014-Nov-19 10:33N 37°09' E 025°39'1010.4
2014-Nov-19 09:33N 37°13' E 025°27'1110.9
2014-Nov-19 08:31N 37°10' E 025°13'6 0.4
2014-Nov-18 17:26N 37°05' E 025°09'6 6.3
2014-Nov-18 16:33N 37°10' E 025°06'1111.0
2014-Nov-18 15:33N 37°21' E 025°02'7 6.5
2014-Nov-18 14:30N 37°26' E 024°56'  

Dump ship's entire track history